Station info - map view · info · telemetry · weather · raw · status · beacons · messages · bulletins · browse · moving · my account
Callsign, ship name or locator: Clear       
It is possible to search using wildcards (*?) after a prefix. Example: OH*
APRS station OK2MKS - show graphs
Map loading...
Comment: 439.100MHz QRV, MICHAL
Mic-E message: En route
Location: 49°28.88' N 16°45.52' E - locator JN89JL15AM - show map - static map
4.4 miles East bearing 95° from Boskovice, South Moravian Region, Czech Republic [?]
7.3 miles East bearing 101° from Svitávka, South Moravian Region, Czech Republic
20.9 miles North bearing 19° from Brno, South Moravian Region, Czech Republic
72.3 miles West bearing 251° from Ostrava, Moravskoslezský Kraj, Czech Republic
Last position: 2017-08-15 14:26:20 EDT (3d 5h32m ago)
2017-08-15 20:26:20 CEST local time at Boskovice, Czech Republic [?]
Altitude: 2175 ft
Course: 109°
Speed: 15 MPH
Device: Kenwood: TM-D710 (rig)
Last path: OK2MKS>TY2X88 via OK0BH-2*,WIDE2-2,qAR,OK2KOJ-1,T2CZECH (good)
Positions stored: 95960
Packet rate: 130 seconds between packets on average during 4152 seconds.
Other SSIDs: OK2MKS-5
Stations near current position of OK2MKS - show more
callsign distance last heard - EDT      callsign distance last heard - EDT
OK2RA2.5 miles 219°2017-08-08 18:30:24 N1950188_2.6 miles 209°2017-08-10 22:16:26
N19501882.7 miles 210°2017-08-10 22:15:28 OK0DHD C4.7 miles 182°2017-08-18 19:46:39
OK0DHD-C4.7 miles 182°2017-08-18 19:46:49 OK0DHD B4.7 miles 182°2017-08-18 19:46:59
OK0DHD-B4.7 miles 182°2017-08-18 19:47:09 OK0PVD B7.6 miles 117°2017-07-27 02:39:42
OK0PVD-B7.6 miles 117°2017-07-27 02:39:52 OK2AZG8.0 miles 185°2017-08-15 11:03:49
EL-OK2ZO8.3 miles 184°2017-08-01 12:43:33 EL-OK2AZG8.3 miles 184°2017-08-18 13:04:51
OK2KG8.9 miles 170°2017-08-18 19:47:36 OK2KG DP8.9 miles 170°2017-08-18 02:04:01
145.612JM9.0 miles 172°2017-08-18 19:35:01 OK2HF-109.1 miles 210°2017-08-16 13:40:29
OK2HF10.0 miles 208°2017-08-18 15:36:09 OK1MSU-B10.6 miles 349°2017-08-18 19:43:03
N201075113.1 miles 220°2017-08-12 10:51:39 N2010751_13.2 miles 202°2017-08-12 10:48:20
Stations which heard OK2MKS directly on radio –
callsign pkts first heard - EDT last heard longest (tx => rx) longest at - EDT
OE1XQR 18 2017-08-04 13:59:08 2017-08-04 15:30:22 JN88HQ > JN88EE 38.3 miles 198° 2017-08-04 13:59:08
OE6XTR 101 2017-08-04 11:19:50 2017-08-04 20:33:45 JN89JL > JN77VN 138.4 miles 199° 2017-08-04 11:19:50
HG1PNY-1 5 2017-08-04 13:59:07 2017-08-04 15:33:49 JN88HQ > JN87TN 90.2 miles 148° 2017-08-04 13:59:07
IR6RST 1 2017-08-05 00:02:15 2017-08-05 00:02:15 JN74TA > JN72AN 125.0 miles 219° 2017-08-05 00:02:15
OE6XRR 30 2017-08-04 16:58:46 2017-08-04 19:05:36 JN76WI > JN77QC 56.5 miles 336° 2017-08-04 19:05:36
OE3XKR 57 2017-08-04 12:18:23 2017-08-15 14:25:17 JN89JL > JN88EN 64.7 miles 195° 2017-08-15 14:25:17
S52ZO-12 2 2017-08-04 20:14:45 2017-08-04 20:15:22 JN75VU > JN75JX 48.9 miles 283° 2017-08-04 20:15:22
OE1SSU-10 21 2017-08-04 14:53:12 2017-08-04 15:30:21 JN87CV > JN88DD 16.2 miles 13° 2017-08-04 15:30:21
IR6BC 2 2017-08-04 22:59:04 2017-08-04 23:53:18 JN74TG > JN63QO 118.1 miles 249° 2017-08-04 22:59:04
HG3PMF-1 1 2017-08-04 17:39:10 2017-08-04 17:39:10 JN76UR > JN96CC 124.0 miles 109° 2017-08-04 17:39:10
9A1W-1 6 2017-08-04 20:12:34 2017-08-04 20:23:44 JN75WR > JN75ST 18.6 miles 285° 2017-08-04 20:23:44
OK0BH-2 31 2017-08-04 11:19:49 2017-08-15 14:26:20 JN89EO > JN88HU 51.2 miles 166° 2017-08-14 13:50:51
OK1KHL-1 8 2017-08-14 14:10:57 2017-08-15 13:18:35 JN89CR > JO80AC 25.1 miles 342° 2017-08-14 14:10:57
IZ6RDB 20 2017-08-04 22:57:33 2017-08-05 00:43:41 JN83CO > JN63SO 134.3 miles 271° 2017-08-05 00:43:41
OE6XLR-11 18 2017-08-04 16:44:35 2017-08-04 19:42:22 JN76WG > JN77OI 82.0 miles 337° 2017-08-04 19:42:22
OK0X-2 5 2017-08-14 13:50:26 2017-08-15 14:00:33 JN89BS > JO80OB 53.5 miles 64° 2017-08-15 13:19:10
OE6XZG 32 2017-08-04 16:43:38 2017-08-04 18:42:56 JN76WM > JN77RE 51.8 miles 337° 2017-08-04 18:42:56
OK0BCA-1 6 2017-08-14 14:03:28 2017-08-15 13:36:43 JN89DQ > JO70UQ 73.4 miles 340° 2017-08-15 13:36:43
OK0BBK-2 1 2017-08-14 14:16:31 2017-08-14 14:16:31 JN89BS > JO70PO 68.2 miles 326° 2017-08-14 14:16:31
9A1CIG-10 29 2017-08-05 00:06:14 2017-08-05 02:39:14 JN73UW > JN83HM 55.8 miles 123° 2017-08-05 00:06:14
OE1SSU-12 5 2017-08-04 14:23:05 2017-08-04 14:41:51 JN88HL > JN88DD 28.4 miles 210° 2017-08-04 14:23:05
9A2CD-11 28 2017-08-04 19:52:07 2017-08-04 20:30:16 JN76WD > JN75XS 28.0 miles 166° 2017-08-04 19:52:07
OE1IWA-10 1 2017-08-04 14:52:42 2017-08-04 14:52:42 JN88ED > JN88ED 2.0 miles 224° 2017-08-04 14:52:42
OE3XIA-10 14 2017-08-04 12:59:12 2017-08-04 14:36:36 JN88GV > JN88CF 47.9 miles 199° 2017-08-04 12:59:12
S59GCD-12 18 2017-08-04 18:34:10 2017-08-04 20:00:08 JN76WN > JN76OE 41.0 miles 230° 2017-08-04 18:35:42
S55UJE-11 7 2017-08-04 16:52:42 2017-08-04 20:23:49 JN75WR > JN76BL 98.0 miles 302° 2017-08-04 20:23:49
OE3REC-11 2 2017-08-04 14:27:35 2017-08-04 14:34:08 JN88GK > JN88HE 18.1 miles 169° 2017-08-04 14:27:35
OE1ACM-12 15 2017-08-04 14:28:36 2017-08-04 14:54:15 JN88GJ > JN88FF 13.8 miles 196° 2017-08-04 14:28:36
9A7KXP-1 80 2017-08-04 17:02:26 2017-08-04 21:50:34 JN77SB > JN75XV 81.6 miles 166° 2017-08-04 17:02:26
OE3TRB-15 3 2017-08-04 15:08:45 2017-08-04 15:12:15 JN87CX > JN87BW 6.5 miles 249° 2017-08-04 15:08:45
OK1KID-1 2 2017-08-14 14:17:00 2017-08-15 13:17:33 JN89BS > JO70VB 24.9 miles 320° 2017-08-15 13:17:33
9A7KXP-12 4 2017-08-04 22:23:04 2017-08-05 00:04:16 JN73TX > JN74PX 72.6 miles 345° 2017-08-05 00:04:16
OE3PAS-15 6 2017-08-04 14:52:45 2017-08-04 15:12:19 JN88ED > JN87DX 12.6 miles 198° 2017-08-04 14:52:45
OE3XNR 2 2017-08-04 13:04:42 2017-08-04 13:06:46 JN88HT > JN78JQ 84.6 miles 264° 2017-08-04 13:06:46
IR6BJ 6 2017-08-04 22:57:07 2017-08-05 00:22:46 JN74TG > JN62UU 136.6 miles 225° 2017-08-04 22:57:07
OK2KOJ-1 39 2017-08-04 12:17:21 2017-08-04 13:58:37 JN88HQ > JN89GF 36.2 miles 355° 2017-08-04 13:58:37
OE3PDB-3 4 2017-08-04 14:53:42 2017-08-04 15:00:17 JN88DC > JN88BG 15.0 miles 316° 2017-08-04 15:00:17
OE3XFW-10 1 2017-08-04 15:11:45 2017-08-04 15:11:45 JN87CW > JN78XD 18.0 miles 326° 2017-08-04 15:11:45
OE1XAW 22 2017-08-04 14:14:35 2017-08-04 15:31:48 JN88HN > JN88EE 29.7 miles 203° 2017-08-04 14:14:35
OE3XLR 9 2017-08-04 11:19:20 2017-08-15 14:25:17 JN89JL > JN77TX 116.5 miles 207° 2017-08-15 14:25:17
S55YZA-11 23 2017-08-04 16:43:10 2017-08-04 19:57:12 JN77WB > JN76NE 72.2 miles 212° 2017-08-04 16:43:10
OE6XBF-11 44 2017-08-04 16:50:38 2017-08-04 19:56:09 JN76WC > JN76XU 50.7 miles 2° 2017-08-04 19:56:09
IR6FRA 7 2017-08-04 22:58:06 2017-08-05 00:12:46 JN74TF > JN72DK 143.0 miles 209° 2017-08-04 22:58:06
SR6NPK 1 2017-08-14 14:18:48 2017-08-14 14:18:48 JN89BT > JO70TS 70.2 miles 343° 2017-08-14 14:18:48
9A1AYZ-10 18 2017-08-04 19:56:41 2017-08-04 21:19:02 JN75SM > JN85AU 34.9 miles 47° 2017-08-04 21:19:02
9A1DFG-10 1 2017-08-04 19:56:38 2017-08-04 19:56:38 JN76WC > JN85EL 48.6 miles 152° 2017-08-04 19:56:38
9A7KXP 24 2017-08-04 17:31:08 2017-08-04 20:24:16 JN76TR > JN85DT 69.0 miles 153° 2017-08-04 17:31:08
OE3PDB-10 2 2017-08-04 14:55:44 2017-08-04 14:57:14 JN88DD > JN88BG 13.4 miles 306° 2017-08-04 14:57:14
OE3KJN-10 2 2017-08-04 15:31:21 2017-08-04 15:32:48 JN87CU > JN87EX 11.1 miles 57° 2017-08-04 15:32:48
IZ6IQA-2 1 2017-08-05 00:28:15 2017-08-05 00:28:15 JN83AQ > JN63RC 136.1 miles 254° 2017-08-05 00:28:15
OK2RKB-1 13 2017-08-04 12:34:10 2017-08-15 14:09:21 JN88HT > JN89GE 28.3 miles 351° 2017-08-04 13:09:58
OE6XG-1 26 2017-08-04 16:47:04 2017-08-04 18:56:13 JN76WJ > JN77OD 58.9 miles 329° 2017-08-04 18:56:13
9A6NTD-11 3 2017-08-04 18:34:16 2017-08-04 20:12:10 JN76WN > JN86JA 59.6 miles 130° 2017-08-04 18:34:16
9A3DZK-10 8 2017-08-05 00:39:00 2017-08-05 00:46:44 JN83CO > JN83DL 8.6 miles 169° 2017-08-05 00:39:00
S59ACP 8 2017-08-04 19:50:06 2017-08-04 20:23:14 JN76WE > JN75TV 22.5 miles 213° 2017-08-04 19:50:06
OK0DIT-1 1 2017-08-04 12:20:56 2017-08-04 12:20:56 JN89GH > JN89DG 11.5 miles 255° 2017-08-04 12:20:56
S56JCH-10 2 2017-08-04 20:14:43 2017-08-04 21:43:31 JN75VU > JN75DS 73.6 miles 266° 2017-08-04 20:14:43
OE3ZK-13 1 2017-08-04 14:41:53 2017-08-04 14:41:53 JN88FF > JN88DH 8.6 miles 301° 2017-08-04 14:41:53
9A1AYZ-11 90 2017-08-04 17:01:08 2017-08-04 22:12:32 JN77SB > JN75TR 90.8 miles 178° 2017-08-04 17:01:08
9A2B-10 4 2017-08-04 21:13:12 2017-08-04 21:19:31 JN75TN > JN75SL 5.3 miles 218° 2017-08-04 21:13:12
9A3FSP-10 9 2017-08-05 00:33:44 2017-08-05 02:32:14 JN83CP > JN83EN 12.9 miles 126° 2017-08-05 00:33:44
OE3VPA-10 1 2017-08-04 13:06:42 2017-08-04 13:06:42 JN88HT > JN78KS 79.5 miles 268° 2017-08-04 13:06:42
OE6XG-2 46 2017-08-04 16:43:04 2017-08-04 19:49:06 JN76WE > JN77OF 77.6 miles 339° 2017-08-04 19:49:06
9A3PM-11 9 2017-08-04 22:31:04 2017-08-05 00:01:18 JN74RO > JN74PC 36.9 miles 189° 2017-08-04 22:31:04

Only position packets which were originated by the station are shown here. The range statistics show some extra long hops, because some digipeaters do not correctly add themselves to the digipeater path. Please check the raw packets.
About this site
This page shows real-time information collected from the Automatic Position Reporting System Internet network (APRS-IS). APRS is used by amateur (ham) radio operators to transmit real-time position information, weather data, telemetry and messages over the radio. A vehicle equipped with a GPS receiver, a VHF transmitter or HF transceiver and a small computer device called a tracker transmits it's location, speed and course in a small data packet, which is then received by a nearby iGate receiving site which forwards the packet on the Internet. Systems connected to the Internet can send information on the APRS-IS without a radio transmitter, or collect and display information transmitted anywhere in the world.
FAQ · Blog · Discussion group · Linking to aprs.fi · AIS sites · Service status · Database statistics · Advertising on aprs.fi · Technical details · API · Change log · Planned changes · Credits and thanks · Terms Of Service · iPhone/iPad APRS